createdAt,value
2022-09-15T00:01:56.003Z,99758.56
2022-09-15T00:04:22.788Z,99758.91
2022-09-15T00:06:49.583Z,99763.41
2022-09-15T00:09:16.347Z,99766.66
2022-09-15T00:11:43.093Z,99764.63
2022-09-15T00:14:09.883Z,99767.75
2022-09-15T00:16:36.656Z,99763.97
2022-09-15T00:19:03.741Z,99764.06
2022-09-15T00:21:30.893Z,99761.38
2022-09-15T00:23:57.702Z,99762.03
2022-09-15T00:26:24.546Z,99750.31
2022-09-15T00:28:51.481Z,99755.19
2022-09-15T00:31:18.378Z,99752.00
2022-09-15T00:33:45.159Z,99753.50
2022-09-15T00:36:11.961Z,99758.75
2022-09-15T00:38:38.700Z,99749.69
2022-09-15T00:41:05.454Z,99757.03
2022-09-15T00:43:32.221Z,99761.91
2022-09-15T00:45:59.145Z,99759.88
2022-09-15T00:48:25.929Z,99765.72
2022-09-15T00:50:52.782Z,99766.50
2022-09-15T00:53:19.533Z,99762.31
2022-09-15T00:55:47.344Z,99760.44
2022-09-15T00:58:14.125Z,99763.81
2022-09-15T01:00:40.868Z,99763.13
2022-09-15T01:03:07.616Z,99773.97
2022-09-15T01:05:34.595Z,99775.91
2022-09-15T01:08:01.585Z,99754.19
2022-09-15T01:10:28.469Z,99760.06
2022-09-15T01:12:55.465Z,99754.44
2022-09-15T01:15:22.260Z,99755.84
2022-09-15T01:17:49.009Z,99760.31
2022-09-15T01:20:15.964Z,99757.09
2022-09-15T01:22:42.735Z,99764.16
2022-09-15T01:25:09.559Z,99761.72
2022-09-15T01:27:42.571Z,99769.06
2022-09-15T01:30:09.736Z,99767.72
2022-09-15T01:32:55.206Z,99767.28
2022-09-15T01:35:22.053Z,99766.25
2022-09-15T01:37:48.802Z,99768.72
2022-09-15T01:40:15.883Z,99767.25
2022-09-15T01:42:42.640Z,99760.91
2022-09-15T01:45:09.405Z,99762.03
2022-09-15T01:47:36.195Z,99756.81
2022-09-15T01:50:02.944Z,99743.66
2022-09-15T01:52:29.694Z,99760.28
2022-09-15T01:54:56.460Z,99751.19
2022-09-15T01:57:23.201Z,99756.59
2022-09-15T01:59:49.938Z,99750.75
2022-09-15T02:02:16.812Z,99753.09
2022-09-15T02:04:46.292Z,99747.03
2022-09-15T02:07:13.045Z,99750.81
2022-09-15T02:09:39.810Z,99757.06
2022-09-15T02:12:07.667Z,99759.38
2022-09-15T02:14:36.693Z,99755.06
2022-09-15T02:17:03.592Z,99764.31
2022-09-15T02:19:31.150Z,99756.91
2022-09-15T02:21:57.912Z,99755.06
2022-09-15T02:24:24.901Z,99768.09
2022-09-15T02:26:51.648Z,99763.72
2022-09-15T02:29:18.499Z,99757.34
2022-09-15T02:31:45.416Z,99752.19
2022-09-15T02:34:12.370Z,99738.25
2022-09-15T02:36:39.137Z,99733.91
2022-09-15T02:39:05.910Z,99728.31
2022-09-15T02:41:32.664Z,99734.28
2022-09-15T02:43:59.409Z,99736.31
2022-09-15T02:46:26.177Z,99735.00
2022-09-15T02:48:53.505Z,99748.41
2022-09-15T02:51:20.249Z,99738.75
2022-09-15T02:53:47.086Z,99741.09
2022-09-15T02:56:14.961Z,99751.91
2022-09-15T02:58:41.714Z,99746.91
2022-09-15T03:01:08.591Z,99760.41
2022-09-15T03:03:37.854Z,99753.72
2022-09-15T03:06:19.733Z,99755.25
2022-09-15T03:08:46.505Z,99760.09
2022-09-15T03:11:13.260Z,99763.47
2022-09-15T03:13:40.044Z,99760.88
2022-09-15T03:16:06.816Z,99761.56
2022-09-15T03:18:33.624Z,99755.06
2022-09-15T03:21:01.345Z,99764.09
2022-09-15T03:23:28.545Z,99760.81
2022-09-15T03:25:55.324Z,99757.69
2022-09-15T03:28:22.107Z,99770.06
2022-09-15T03:30:48.846Z,99765.19
2022-09-15T03:33:15.582Z,99768.59
2022-09-15T03:35:42.364Z,99772.38
2022-09-15T03:38:09.118Z,99773.16
2022-09-15T03:40:37.646Z,99766.25
2022-09-15T03:43:04.465Z,99779.97
2022-09-15T03:45:31.254Z,99775.06
2022-09-15T03:47:58.120Z,99776.81
2022-09-15T03:50:24.893Z,99772.06
2022-09-15T03:52:54.545Z,99779.25
2022-09-15T03:55:24.906Z,99781.31
2022-09-15T03:57:52.500Z,99782.88
2022-09-15T04:00:19.242Z,99775.97
2022-09-15T04:02:45.993Z,99766.50
2022-09-15T04:05:13.323Z,99768.94
2022-09-15T04:07:40.085Z,99766.47
2022-09-15T04:10:06.849Z,99766.53
2022-09-15T04:12:34.349Z,99773.00
2022-09-15T04:15:01.229Z,99770.69
2022-09-15T04:17:28.276Z,99777.22
2022-09-15T04:19:55.358Z,99765.91
2022-09-15T04:22:22.183Z,99770.47
2022-09-15T04:24:48.975Z,99776.06
2022-09-15T04:27:15.780Z,99778.38
2022-09-15T04:29:42.689Z,99779.69
2022-09-15T04:32:09.452Z,99781.41
2022-09-15T04:34:41.206Z,99775.56
2022-09-15T04:37:08.311Z,99769.72
2022-09-15T04:39:35.057Z,99773.31
2022-09-15T04:42:05.247Z,99765.47
2022-09-15T04:44:32.430Z,99767.41
2022-09-15T04:46:59.279Z,99764.47
2022-09-15T04:49:26.135Z,99761.97
2022-09-15T04:51:53.678Z,99769.16
2022-09-15T04:54:20.422Z,99774.59
2022-09-15T04:56:47.391Z,99778.59
2022-09-15T04:59:14.137Z,99777.88
2022-09-15T05:01:41.041Z,99773.22
2022-09-15T05:04:07.882Z,99775.22
2022-09-15T05:06:34.875Z,99770.88
2022-09-15T05:09:04.391Z,99771.56
2022-09-15T05:11:33.250Z,99771.50
2022-09-15T05:14:00.001Z,99776.13
2022-09-15T05:16:26.813Z,99780.56
2022-09-15T05:18:53.785Z,99786.50
2022-09-15T05:21:20.597Z,99789.81
2022-09-15T05:23:47.845Z,99787.91
2022-09-15T05:26:14.622Z,99787.25
2022-09-15T05:28:41.390Z,99783.78
2022-09-15T05:31:08.338Z,99783.28
2022-09-15T05:33:35.978Z,99793.06
2022-09-15T05:36:02.725Z,99787.81
2022-09-15T05:38:29.468Z,99792.81
2022-09-15T05:40:56.221Z,99791.75
2022-09-15T05:43:23.127Z,99788.09
2022-09-15T05:45:49.959Z,99795.19
2022-09-15T05:48:16.734Z,99796.66
2022-09-15T05:50:43.477Z,99788.66
2022-09-15T05:53:10.223Z,99795.53
2022-09-15T05:55:37.246Z,99792.81
2022-09-15T05:58:04.125Z,99797.31
2022-09-15T06:00:30.989Z,99796.22
2022-09-15T06:02:57.911Z,99796.72
2022-09-15T06:05:24.704Z,99804.03
2022-09-15T06:07:51.453Z,99794.38
2022-09-15T06:10:18.411Z,99797.53
2022-09-15T06:12:45.201Z,99790.44
2022-09-15T06:15:12.470Z,99793.03
2022-09-15T06:17:39.264Z,99791.78
2022-09-15T06:20:07.038Z,99785.84
2022-09-15T06:22:33.826Z,99795.22
2022-09-15T06:25:00.601Z,99790.00
2022-09-15T06:27:27.438Z,99788.88
2022-09-15T06:29:54.216Z,99790.13
2022-09-15T06:32:21.050Z,99804.72
2022-09-15T06:34:47.822Z,99807.31
2022-09-15T06:37:14.567Z,99804.22
2022-09-15T06:39:41.385Z,99807.63
2022-09-15T06:42:09.537Z,99807.72
2022-09-15T06:44:38.264Z,99811.25
2022-09-15T06:47:05.241Z,99805.22
2022-09-15T06:49:31.993Z,99812.69
2022-09-15T06:51:58.754Z,99799.53
2022-09-15T06:54:25.557Z,99810.09
2022-09-15T06:56:52.532Z,99807.47
2022-09-15T06:59:19.320Z,99812.16
2022-09-15T07:01:46.351Z,99808.84
2022-09-15T07:04:13.214Z,99808.72
2022-09-15T07:06:40.205Z,99807.00
2022-09-15T07:09:07.131Z,99809.81
2022-09-15T07:11:33.956Z,99816.38
2022-09-15T07:14:00.740Z,99819.03
2022-09-15T07:16:27.622Z,99818.84
2022-09-15T07:18:54.425Z,99819.91
2022-09-15T07:21:21.503Z,99818.06
2022-09-15T07:23:48.278Z,99812.06
2022-09-15T07:26:15.024Z,99820.72
2022-09-15T07:28:45.600Z,99814.28
2022-09-15T07:31:12.434Z,99816.03
2022-09-15T07:33:39.237Z,99810.78
2022-09-15T07:36:06.681Z,99817.75
2022-09-15T07:38:33.449Z,99811.56
2022-09-15T07:41:00.729Z,99806.50
2022-09-15T07:43:27.528Z,99818.09
2022-09-15T07:45:54.349Z,99820.19
2022-09-15T07:48:25.719Z,99830.19
2022-09-15T07:50:53.205Z,99836.19
2022-09-15T07:53:20.000Z,99832.34
2022-09-15T07:55:46.987Z,99836.41
2022-09-15T07:58:13.759Z,99847.78
2022-09-15T08:00:40.707Z,99843.13
2022-09-15T08:03:07.506Z,99848.50
2022-09-15T08:05:38.677Z,99856.66
2022-09-15T08:08:07.149Z,99850.25
2022-09-15T08:10:33.911Z,99852.66
2022-09-15T08:13:00.659Z,99843.97
2022-09-15T08:15:27.423Z,99850.06
2022-09-15T08:17:55.612Z,99851.16
2022-09-15T08:20:22.374Z,99849.59
2022-09-15T08:22:49.133Z,99858.66
2022-09-15T08:25:15.960Z,99860.41
2022-09-15T08:27:43.041Z,99871.72
2022-09-15T08:30:10.044Z,99866.41
2022-09-15T08:32:36.862Z,99877.91
2022-09-15T08:35:03.673Z,99879.06
2022-09-15T08:37:31.065Z,99881.19
2022-09-15T08:39:57.866Z,99879.03
2022-09-15T08:42:26.764Z,99880.09
2022-09-15T08:44:55.344Z,99877.72
2022-09-15T08:47:22.369Z,99880.03
2022-09-15T08:49:51.971Z,99884.44
2022-09-15T08:52:19.356Z,99874.31
2022-09-15T08:54:46.113Z,99882.41
2022-09-15T08:57:12.855Z,99875.69
2022-09-15T08:59:40.001Z,99884.38
2022-09-15T09:02:06.837Z,99879.91
2022-09-15T09:04:33.719Z,99883.88
2022-09-15T09:07:00.500Z,99886.03
2022-09-15T09:09:27.426Z,99884.38
2022-09-15T09:11:54.207Z,99890.00
2022-09-15T09:14:20.990Z,99881.81
2022-09-15T09:16:47.747Z,99879.88
2022-09-15T09:19:14.553Z,99882.88
2022-09-15T09:21:41.314Z,99874.19
2022-09-15T09:24:08.085Z,99877.91
2022-09-15T09:26:35.048Z,99877.75
2022-09-15T09:29:01.861Z,99869.16
2022-09-15T09:31:28.709Z,99872.50
2022-09-15T09:33:55.551Z,99876.56
2022-09-15T09:36:22.438Z,99875.88
2022-09-15T09:38:49.215Z,99882.56
2022-09-15T09:41:15.994Z,99883.97
2022-09-15T09:43:42.782Z,99883.66
2022-09-15T09:46:09.633Z,99890.06
2022-09-15T09:48:36.465Z,99890.56
2022-09-15T09:51:03.261Z,99873.47
2022-09-15T09:53:31.032Z,99874.34
2022-09-15T09:55:57.789Z,99872.53
2022-09-15T09:58:24.593Z,99872.69
2022-09-15T10:00:51.505Z,99868.13
2022-09-15T10:03:18.349Z,99862.56
2022-09-15T10:05:45.233Z,99861.25
2022-09-15T10:08:12.042Z,99862.47
2022-09-15T10:10:39.397Z,99867.75
2022-09-15T10:13:06.148Z,99857.56
2022-09-15T10:15:33.911Z,99859.72
2022-09-15T10:18:01.228Z,99859.50
2022-09-15T10:20:32.223Z,99856.97
2022-09-15T10:22:58.961Z,99860.88
2022-09-15T10:25:39.440Z,99858.06
2022-09-15T10:28:11.606Z,99871.34
2022-09-15T10:30:38.353Z,99868.06
2022-09-15T10:33:05.101Z,99868.66
2022-09-15T10:35:31.891Z,99868.72
2022-09-15T10:37:58.780Z,99869.88
2022-09-15T10:40:25.569Z,99871.28
2022-09-15T10:42:52.384Z,99864.59
2022-09-15T10:45:19.134Z,99866.50
2022-09-15T10:47:45.917Z,99863.88
2022-09-15T10:50:12.730Z,99862.47
2022-09-15T10:52:39.476Z,99860.97
2022-09-15T10:55:06.269Z,99862.59
2022-09-15T10:57:33.039Z,99861.41
2022-09-15T10:59:59.791Z,99869.50
2022-09-15T11:02:26.633Z,99870.13
2022-09-15T11:04:53.537Z,99870.22
2022-09-15T11:07:20.351Z,99874.25
2022-09-15T11:09:47.216Z,99868.94
2022-09-15T11:12:14.017Z,99876.53
2022-09-15T11:14:40.862Z,99874.13
2022-09-15T11:17:07.695Z,99875.09
2022-09-15T11:19:34.456Z,99866.78
2022-09-15T11:22:01.223Z,99868.13
2022-09-15T11:24:28.009Z,99868.91
2022-09-15T11:26:54.774Z,99870.25
2022-09-15T11:29:21.528Z,99868.91
2022-09-15T11:31:48.387Z,99869.38
2022-09-15T11:34:15.289Z,99870.56
2022-09-15T11:36:42.037Z,99861.53
2022-09-15T11:39:08.912Z,99863.97
2022-09-15T11:41:35.689Z,99864.06
2022-09-15T11:44:02.466Z,99867.25
2022-09-15T11:46:29.295Z,99864.06
2022-09-15T11:48:56.195Z,99860.34
2022-09-15T11:51:22.989Z,99865.22
2022-09-15T11:53:50.807Z,99869.72
2022-09-15T11:56:17.598Z,99865.34
2022-09-15T11:58:44.541Z,99861.31
2022-09-15T12:01:11.301Z,99863.56
2022-09-15T12:03:38.081Z,99863.88
2022-09-15T12:06:04.825Z,99866.97
2022-09-15T12:08:32.321Z,99855.91
2022-09-15T12:10:59.069Z,99859.25
2022-09-15T12:13:25.943Z,99859.81
2022-09-15T12:15:53.465Z,99857.31
2022-09-15T12:18:37.837Z,99855.22
2022-09-15T12:21:06.852Z,99863.16
2022-09-15T12:23:34.501Z,99854.50
2022-09-15T12:26:01.253Z,99863.81
2022-09-15T12:28:28.109Z,99865.22
2022-09-15T12:30:55.000Z,99861.41
2022-09-15T12:33:21.752Z,99866.19
2022-09-15T12:35:48.512Z,99850.41
2022-09-15T12:38:15.360Z,99866.88
2022-09-15T12:40:42.199Z,99861.22
2022-09-15T12:43:08.997Z,99856.88
2022-09-15T12:45:38.882Z,99863.41
2022-09-15T12:48:05.885Z,99852.56
2022-09-15T12:50:32.878Z,99860.16
2022-09-15T12:52:59.703Z,99859.41
2022-09-15T12:55:27.125Z,99870.69
2022-09-15T12:57:53.921Z,99866.16
2022-09-15T13:00:20.700Z,99862.72
2022-09-15T13:02:47.595Z,99857.31
2022-09-15T13:05:14.433Z,99857.97
2022-09-15T13:07:41.189Z,99846.34
2022-09-15T13:10:07.933Z,99852.41
2022-09-15T13:12:34.744Z,99864.38
2022-09-15T13:15:01.503Z,99864.53
2022-09-15T13:17:29.365Z,99865.97
2022-09-15T13:19:56.115Z,99861.69
2022-09-15T13:22:27.330Z,99864.78
2022-09-15T13:24:57.776Z,99859.84
2022-09-15T13:27:28.474Z,99857.97
2022-09-15T13:29:55.229Z,99856.38
2022-09-15T13:32:21.974Z,99851.72
2022-09-15T13:35:13.162Z,99853.19
2022-09-15T13:40:25.250Z,99851.97
2022-09-15T13:42:52.144Z,99843.78
2022-09-15T13:45:19.004Z,99849.44
2022-09-15T13:47:45.774Z,99840.09
2022-09-15T13:50:13.109Z,99847.56
2022-09-15T13:52:39.841Z,99844.06
2022-09-15T13:55:06.630Z,99843.91
2022-09-15T14:00:23.299Z,99836.75
2022-09-15T14:02:50.121Z,99827.25
2022-09-15T14:05:16.892Z,99833.50
2022-09-15T14:07:43.703Z,99829.47
2022-09-15T14:10:10.437Z,99838.00
2022-09-15T14:12:37.184Z,99833.59
2022-09-15T14:15:05.457Z,99830.19
2022-09-15T14:17:34.115Z,99831.72
2022-09-15T14:20:01.028Z,99836.50
2022-09-15T14:22:27.987Z,99837.09
2022-09-15T14:24:54.761Z,99836.22
2022-09-15T14:27:22.101Z,99832.72
2022-09-15T14:29:50.192Z,99837.72
2022-09-15T14:32:16.982Z,99825.63
2022-09-15T14:34:43.757Z,99824.81
2022-09-15T14:37:10.573Z,99827.38
2022-09-15T14:39:37.897Z,99829.47
2022-09-15T14:42:04.803Z,99840.44
2022-09-15T14:47:18.325Z,99842.09
2022-09-15T14:49:45.112Z,99836.91
2022-09-15T14:52:11.856Z,99846.41
2022-09-15T14:54:38.605Z,99844.91
2022-09-15T14:57:05.353Z,99835.22
2022-09-15T14:59:32.461Z,99838.78
2022-09-15T15:01:59.269Z,99831.00
2022-09-15T15:04:26.112Z,99829.03
2022-09-15T15:06:52.862Z,99830.66
2022-09-15T15:09:20.973Z,99824.66
2022-09-15T15:11:48.108Z,99840.41
2022-09-15T15:14:15.701Z,99837.38
2022-09-15T15:16:42.518Z,99835.03
2022-09-15T15:19:09.486Z,99836.50
2022-09-15T15:21:36.281Z,99838.81
2022-09-15T15:24:03.027Z,99836.66
2022-09-15T15:26:29.792Z,99835.28
2022-09-15T15:28:56.720Z,99834.75
2022-09-15T15:31:24.173Z,99825.22
2022-09-15T15:33:50.993Z,99830.31
2022-09-15T15:36:17.844Z,99828.56
2022-09-15T15:38:47.425Z,99838.53
2022-09-15T15:41:14.762Z,99833.59
2022-09-15T15:43:41.748Z,99836.56
2022-09-15T15:46:08.670Z,99830.91
2022-09-15T15:48:37.953Z,99828.16
2022-09-15T15:51:05.156Z,99844.97
2022-09-15T15:53:31.953Z,99839.69
2022-09-15T15:56:00.115Z,99840.06
2022-09-15T15:58:26.900Z,99835.28
2022-09-15T16:00:53.814Z,99831.13
2022-09-15T16:03:20.712Z,99831.66
2022-09-15T16:05:47.461Z,99838.63
2022-09-15T16:08:14.331Z,99831.28
2022-09-15T16:10:41.113Z,99844.63
2022-09-15T16:13:08.242Z,99840.81
2022-09-15T16:15:35.181Z,99840.22
2022-09-15T16:18:01.976Z,99840.81
2022-09-15T16:20:29.102Z,99854.06
2022-09-15T16:22:55.972Z,99852.94
2022-09-15T16:25:23.157Z,99843.84
2022-09-15T16:27:49.938Z,99850.69
2022-09-15T16:30:16.685Z,99850.53
2022-09-15T16:32:43.451Z,99853.88
2022-09-15T16:35:10.342Z,99857.13
2022-09-15T16:37:37.082Z,99857.78
2022-09-15T16:40:03.905Z,99853.16
2022-09-15T16:42:30.664Z,99865.34
2022-09-15T16:44:57.540Z,99867.25
2022-09-15T16:47:24.374Z,99863.75
2022-09-15T16:49:52.635Z,99876.56
2022-09-15T16:52:19.957Z,99879.56
2022-09-15T16:54:46.705Z,99878.91
2022-09-15T16:57:13.468Z,99873.41
2022-09-15T16:59:40.206Z,99875.22
2022-09-15T17:02:07.011Z,99874.22
2022-09-15T17:04:33.793Z,99881.53
2022-09-15T17:07:00.544Z,99878.16
2022-09-15T17:09:27.312Z,99877.47
2022-09-15T17:11:54.085Z,99877.34
2022-09-15T17:14:20.888Z,99872.34
2022-09-15T17:16:52.578Z,99878.00
2022-09-15T17:19:19.328Z,99884.56
2022-09-15T17:21:46.103Z,99882.91
2022-09-15T17:24:12.931Z,99887.97
2022-09-15T17:26:39.696Z,99888.91
2022-09-15T17:29:06.569Z,99882.19
2022-09-15T17:31:33.469Z,99884.38
2022-09-15T17:34:00.769Z,99889.28
2022-09-15T17:36:27.596Z,99884.03
2022-09-15T17:38:54.363Z,99886.22
2022-09-15T17:41:22.298Z,99884.84
2022-09-15T17:43:49.360Z,99885.22
2022-09-15T17:46:16.211Z,99881.63
2022-09-15T17:48:43.040Z,99885.06
2022-09-15T17:51:09.851Z,99882.91
2022-09-15T17:53:37.025Z,99885.22
2022-09-15T17:56:03.782Z,99886.16
2022-09-15T17:58:31.739Z,99884.66
2022-09-15T18:00:58.555Z,99888.13
2022-09-15T18:03:27.509Z,99892.16
2022-09-15T18:05:54.456Z,99898.16
2022-09-15T18:08:21.274Z,99898.44
2022-09-15T18:10:48.025Z,99901.50
2022-09-15T18:13:15.133Z,99906.38
2022-09-15T18:15:42.806Z,99909.72
2022-09-15T18:18:09.828Z,99920.06
2022-09-15T18:20:36.919Z,99912.81
2022-09-15T18:23:03.709Z,99921.09
2022-09-15T18:25:30.826Z,99912.94
2022-09-15T18:27:57.626Z,99918.53
2022-09-15T18:30:24.438Z,99922.38
2022-09-15T18:32:51.433Z,99920.03
2022-09-15T18:35:18.717Z,99927.34
2022-09-15T18:37:45.623Z,99919.28
2022-09-15T18:40:12.448Z,99925.38
2022-09-15T18:42:39.223Z,99917.22
2022-09-15T18:45:06.014Z,99919.91
2022-09-15T18:47:32.769Z,99922.97
2022-09-15T18:50:00.664Z,99921.91
2022-09-15T18:52:27.506Z,99930.16
2022-09-15T18:54:54.286Z,99925.91
2022-09-15T18:57:22.228Z,99930.81
2022-09-15T18:59:48.998Z,99925.28
2022-09-15T19:02:16.058Z,99937.22
2022-09-15T19:04:42.910Z,99931.84
2022-09-15T19:07:09.682Z,99936.41
2022-09-15T19:09:36.437Z,99932.34
2022-09-15T19:12:03.173Z,99937.50
2022-09-15T19:14:29.927Z,99935.66
2022-09-15T19:16:58.316Z,99934.31
2022-09-15T19:19:25.277Z,99931.47
2022-09-15T19:21:52.055Z,99927.56
2022-09-15T19:24:18.801Z,99934.72
2022-09-15T19:26:46.733Z,99933.56
2022-09-15T19:29:13.848Z,99941.06
2022-09-15T19:31:42.191Z,99932.09
2022-09-15T19:34:09.147Z,99928.66
2022-09-15T19:36:35.942Z,99932.09
2022-09-15T19:39:03.302Z,99929.31
2022-09-15T19:41:30.040Z,99921.31
2022-09-15T19:43:57.461Z,99934.00
2022-09-15T19:46:24.276Z,99938.16
2022-09-15T19:48:51.204Z,99945.63
2022-09-15T19:51:18.148Z,99945.88
2022-09-15T19:53:44.895Z,99948.81
2022-09-15T19:56:11.642Z,99940.91
2022-09-15T19:58:38.483Z,99944.53
2022-09-15T20:01:05.460Z,99957.34
2022-09-15T20:03:32.264Z,99957.41
2022-09-15T20:05:59.036Z,99953.59
2022-09-15T20:08:25.874Z,99965.09
2022-09-15T20:10:52.623Z,99966.72
2022-09-15T20:13:19.410Z,99964.22
2022-09-15T20:15:46.159Z,99973.56
2022-09-15T20:18:13.314Z,99973.66
2022-09-15T20:20:40.289Z,99984.25
2022-09-15T20:23:07.081Z,99990.09
2022-09-15T20:25:33.820Z,99999.13
2022-09-15T20:28:00.585Z,99997.13
2022-09-15T20:30:27.376Z,100004.78
2022-09-15T20:32:54.264Z,100002.22
2022-09-15T20:35:21.033Z,100011.59
2022-09-15T20:37:49.378Z,100011.19
2022-09-15T20:40:16.225Z,100008.94
2022-09-15T20:42:43.044Z,99999.09
2022-09-15T20:45:10.229Z,100003.72
2022-09-15T20:47:37.049Z,99996.16
2022-09-15T20:50:03.803Z,99987.66
2022-09-15T20:52:35.890Z,99998.00
2022-09-15T20:55:04.945Z,99992.41
2022-09-15T20:57:31.697Z,99990.97
2022-09-15T20:59:58.468Z,99993.13
2022-09-15T21:02:25.289Z,99987.66
2022-09-15T21:04:52.070Z,99986.59
2022-09-15T21:07:18.814Z,99996.75
2022-09-15T21:09:45.580Z,99994.38
2022-09-15T21:12:12.335Z,99992.75
2022-09-15T21:14:39.106Z,99990.28
2022-09-15T21:17:05.888Z,99990.94
2022-09-15T21:19:32.668Z,99979.09
2022-09-15T21:21:59.601Z,99984.63
2022-09-15T21:24:26.554Z,99991.22
2022-09-15T21:27:11.915Z,99984.03
2022-09-15T21:29:38.709Z,99984.25
2022-09-15T21:32:05.501Z,99990.63
2022-09-15T21:34:32.267Z,99992.75
2022-09-15T21:36:59.025Z,100001.59
2022-09-15T21:39:25.781Z,99994.84
2022-09-15T21:41:52.539Z,99996.22
2022-09-15T21:44:19.442Z,100002.44
2022-09-15T21:46:47.151Z,100008.50
2022-09-15T21:49:13.956Z,100006.72
2022-09-15T21:51:40.757Z,100005.59
2022-09-15T21:54:07.509Z,100014.78
2022-09-15T21:56:34.255Z,100008.94
2022-09-15T21:59:01.022Z,100011.94
2022-09-15T22:01:27.911Z,100003.00
2022-09-15T22:03:54.904Z,100009.91
2022-09-15T22:06:21.690Z,100016.91
2022-09-15T22:08:48.485Z,100022.53
2022-09-15T22:11:15.242Z,100021.09
2022-09-15T22:13:42.079Z,100028.66
2022-09-15T22:16:08.898Z,100030.22
2022-09-15T22:18:35.672Z,100027.31
2022-09-15T22:21:02.463Z,100031.50
2022-09-15T22:23:29.266Z,100034.91
2022-09-15T22:25:56.014Z,100027.13
2022-09-15T22:28:22.839Z,100024.53
2022-09-15T22:30:49.591Z,100023.84
2022-09-15T22:33:16.360Z,100021.09
2022-09-15T22:35:43.137Z,100026.28
2022-09-15T22:38:10.095Z,100024.84
2022-09-15T22:40:36.945Z,100023.41
2022-09-15T22:43:03.861Z,100030.22
2022-09-15T22:45:30.706Z,100017.84
2022-09-15T22:47:57.483Z,100025.84
2022-09-15T22:50:24.242Z,100023.13
2022-09-15T22:52:51.813Z,100026.22
2022-09-15T22:55:18.967Z,100030.31
2022-09-15T22:57:45.745Z,100029.41
2022-09-15T23:00:12.567Z,100020.69
2022-09-15T23:02:39.312Z,100025.19
2022-09-15T23:05:06.446Z,100023.06
2022-09-15T23:07:34.442Z,100021.13
2022-09-15T23:10:01.539Z,100034.53
2022-09-15T23:12:28.383Z,100023.09
2022-09-15T23:14:55.157Z,100023.53
2022-09-15T23:17:22.561Z,100021.78
2022-09-15T23:19:49.389Z,100016.84
2022-09-15T23:22:16.151Z,100015.94
2022-09-15T23:24:42.915Z,100010.69
2022-09-15T23:27:09.858Z,100012.75
2022-09-15T23:29:36.631Z,100014.25
2022-09-15T23:32:03.373Z,100014.66
2022-09-15T23:34:30.181Z,100012.06
2022-09-15T23:36:57.068Z,100011.22
2022-09-15T23:39:23.812Z,100011.38
2022-09-15T23:41:50.565Z,100011.53
2022-09-15T23:44:17.321Z,100006.66
2022-09-15T23:46:44.110Z,100009.53
2022-09-15T23:49:15.471Z,100024.00
2022-09-15T23:51:44.770Z,100021.31
2022-09-15T23:54:11.529Z,100024.50
2022-09-15T23:56:38.413Z,100022.38
2022-09-15T23:59:05.251Z,100019.09
